createdAt,value
2022-10-10T00:00:41.684Z,3.70
2022-10-10T00:03:08.429Z,3.90
2022-10-10T00:05:36.190Z,3.63
2022-10-10T00:08:02.516Z,4.05
2022-10-10T00:10:28.842Z,3.60
2022-10-10T00:12:55.217Z,3.78
2022-10-10T00:15:21.972Z,3.80
2022-10-10T00:17:48.704Z,4.40
2022-10-10T00:20:15.977Z,4.30
2022-10-10T00:22:42.400Z,3.90
2022-10-10T00:25:09.806Z,3.70
2022-10-10T00:27:36.417Z,3.85
2022-10-10T00:30:04.907Z,4.00
2022-10-10T00:32:32.293Z,4.25
2022-10-10T00:34:58.629Z,4.05
2022-10-10T00:37:25.094Z,4.10
2022-10-10T00:39:51.502Z,4.45
2022-10-10T00:42:18.706Z,4.35
2022-10-10T00:44:46.164Z,4.32
2022-10-10T00:47:13.289Z,4.10
2022-10-10T00:49:41.837Z,3.65
2022-10-10T00:52:09.665Z,4.25
2022-10-10T00:54:36.664Z,4.38
2022-10-10T00:57:05.597Z,4.38
2022-10-10T00:59:33.552Z,3.83
2022-10-10T01:02:00.036Z,3.88
2022-10-10T01:04:31.310Z,4.45
2022-10-10T01:06:58.216Z,4.43
2022-10-10T01:09:24.959Z,3.95
2022-10-10T01:12:17.773Z,4.32
2022-10-10T01:14:47.776Z,3.65
2022-10-10T01:17:14.113Z,4.15
2022-10-10T01:20:05.555Z,4.43
2022-10-10T01:22:50.592Z,3.80
2022-10-10T01:25:23.929Z,4.00
2022-10-10T01:28:09.186Z,4.68
2022-10-10T01:30:35.781Z,4.15
2022-10-10T01:33:08.281Z,3.67
2022-10-10T01:35:44.082Z,4.20
2022-10-10T01:38:29.996Z,4.20
2022-10-10T01:40:58.936Z,4.72
2022-10-10T01:43:26.173Z,4.10
2022-10-10T01:45:53.289Z,4.10
2022-10-10T01:48:24.861Z,4.50
2022-10-10T01:50:54.227Z,3.92
2022-10-10T01:53:23.624Z,4.00
2022-10-10T01:55:53.330Z,3.88
2022-10-10T01:58:28.466Z,4.47
2022-10-10T02:01:00.006Z,4.07
2022-10-10T02:03:31.336Z,4.40
2022-10-10T02:05:57.634Z,4.32
2022-10-10T02:08:25.102Z,4.35
2022-10-10T02:10:55.376Z,4.30
2022-10-10T02:13:23.177Z,4.63
2022-10-10T02:15:52.487Z,5.00
2022-10-10T02:18:20.641Z,4.70
2022-10-10T02:20:47.729Z,4.22
2022-10-10T02:23:16.181Z,4.45
2022-10-10T02:25:47.418Z,4.97
2022-10-10T02:28:23.120Z,4.72
2022-10-10T02:30:50.553Z,4.40
2022-10-10T02:33:19.741Z,4.07
2022-10-10T02:35:49.295Z,4.63
2022-10-10T02:38:16.581Z,4.07
2022-10-10T02:40:44.702Z,4.43
2022-10-10T02:43:12.177Z,4.57
2022-10-10T02:45:39.452Z,4.53
2022-10-10T02:48:06.437Z,4.20
2022-10-10T02:50:33.277Z,4.38
2022-10-10T02:52:59.930Z,4.60
2022-10-10T02:55:26.369Z,4.88
2022-10-10T02:57:53.086Z,4.70
2022-10-10T03:00:19.657Z,4.60
2022-10-10T03:02:46.362Z,5.05
2022-10-10T03:05:13.177Z,4.50
2022-10-10T03:07:39.624Z,4.25
2022-10-10T03:10:07.274Z,4.65
2022-10-10T03:12:34.273Z,4.53
2022-10-10T03:15:00.702Z,4.88
2022-10-10T03:17:27.162Z,4.95
2022-10-10T03:19:53.533Z,5.05
2022-10-10T03:22:20.033Z,4.43
2022-10-10T03:24:46.398Z,5.13
2022-10-10T03:27:12.729Z,4.25
2022-10-10T03:29:39.088Z,4.80
2022-10-10T03:32:10.202Z,5.07
2022-10-10T03:34:38.884Z,5.93
2022-10-10T03:37:05.233Z,7.28
2022-10-10T03:39:31.675Z,8.65
2022-10-10T03:41:58.926Z,10.00
2022-10-10T03:44:25.390Z,11.93
2022-10-10T03:46:51.804Z,10.70
2022-10-10T03:49:18.211Z,10.27
2022-10-10T03:51:44.628Z,10.27
2022-10-10T03:54:11.304Z,11.55
2022-10-10T03:56:37.715Z,10.95
2022-10-10T03:59:06.063Z,10.63
2022-10-10T04:01:33.065Z,10.88
2022-10-10T04:03:59.596Z,10.73
2022-10-10T04:06:27.473Z,10.82
2022-10-10T04:08:53.860Z,9.38
2022-10-10T04:11:20.188Z,9.20
2022-10-10T04:13:46.530Z,9.30
2022-10-10T04:16:13.049Z,9.32
2022-10-10T04:18:39.425Z,9.38
2022-10-10T04:21:05.939Z,9.95
2022-10-10T04:23:32.514Z,9.07
2022-10-10T04:25:58.923Z,10.32
2022-10-10T04:28:25.423Z,10.02
2022-10-10T04:30:51.945Z,8.98
2022-10-10T04:33:18.292Z,9.77
2022-10-10T04:35:46.551Z,8.23
2022-10-10T04:38:12.930Z,8.05
2022-10-10T04:40:39.357Z,8.15
2022-10-10T04:43:05.791Z,9.18
2022-10-10T04:45:37.180Z,8.63
2022-10-10T04:48:04.035Z,9.30
2022-10-10T04:50:30.466Z,8.18
2022-10-10T04:52:56.757Z,9.68
2022-10-10T04:55:23.119Z,9.00
2022-10-10T04:57:49.450Z,8.80
2022-10-10T05:00:15.781Z,7.63
2022-10-10T05:02:42.081Z,7.72
2022-10-10T05:05:09.091Z,8.18
2022-10-10T05:07:35.522Z,7.95
2022-10-10T05:10:02.225Z,7.25
2022-10-10T05:12:28.544Z,7.78
2022-10-10T05:14:54.925Z,7.93
2022-10-10T05:17:21.292Z,7.43
2022-10-10T05:19:47.618Z,7.45
2022-10-10T05:22:13.940Z,7.38
2022-10-10T05:24:40.338Z,6.80
2022-10-10T05:27:06.686Z,7.50
2022-10-10T05:29:33.010Z,8.52
2022-10-10T05:31:59.337Z,8.70
2022-10-10T05:34:25.670Z,8.90
2022-10-10T05:36:52.028Z,8.75
2022-10-10T05:39:18.460Z,9.82
2022-10-10T05:41:44.765Z,9.20
2022-10-10T05:44:11.612Z,9.30
2022-10-10T05:46:37.937Z,8.23
2022-10-10T05:49:04.294Z,9.18
2022-10-10T05:51:30.645Z,9.73
2022-10-10T05:53:57.435Z,8.23
2022-10-10T05:56:23.876Z,8.45
2022-10-10T05:58:51.458Z,7.40
2022-10-10T06:01:17.957Z,8.05
2022-10-10T06:03:44.267Z,7.65
2022-10-10T06:06:10.669Z,7.57
2022-10-10T06:08:37.005Z,7.68
2022-10-10T06:11:05.677Z,7.47
2022-10-10T06:13:31.996Z,8.20
2022-10-10T06:15:58.374Z,6.68
2022-10-10T06:18:25.035Z,7.00
2022-10-10T06:20:51.396Z,7.53
2022-10-10T06:23:18.144Z,7.25
2022-10-10T06:25:44.483Z,7.68
2022-10-10T06:28:11.307Z,7.28
2022-10-10T06:30:42.034Z,7.97
2022-10-10T06:33:08.733Z,7.15
2022-10-10T06:35:38.240Z,6.57
2022-10-10T06:38:04.540Z,7.05
2022-10-10T06:40:30.836Z,7.10
2022-10-10T06:42:57.193Z,7.47
2022-10-10T06:45:24.975Z,6.63
2022-10-10T06:47:51.292Z,7.20
2022-10-10T06:50:17.657Z,6.95
2022-10-10T06:52:44.032Z,7.45
2022-10-10T06:55:10.481Z,8.00
2022-10-10T06:57:36.957Z,7.22
2022-10-10T07:00:05.665Z,6.90
2022-10-10T07:02:32.097Z,6.45
2022-10-10T07:05:01.169Z,6.43
2022-10-10T07:07:27.533Z,6.93
2022-10-10T07:09:53.866Z,6.07
2022-10-10T07:12:20.219Z,5.72
2022-10-10T07:14:46.558Z,5.68
2022-10-10T07:17:12.899Z,5.10
2022-10-10T07:19:39.218Z,5.63
2022-10-10T07:22:05.538Z,5.07
2022-10-10T07:24:31.946Z,5.15
2022-10-10T07:27:04.856Z,4.65
2022-10-10T07:29:34.352Z,5.88
2022-10-10T07:32:00.680Z,5.20
2022-10-10T07:34:27.137Z,4.95
2022-10-10T07:36:53.441Z,5.38
2022-10-10T07:39:23.575Z,4.78
2022-10-10T07:41:50.452Z,4.47
2022-10-10T07:44:16.860Z,4.28
2022-10-10T07:46:43.288Z,4.72
2022-10-10T07:49:09.710Z,4.15
2022-10-10T07:51:36.151Z,4.43
2022-10-10T07:54:02.813Z,4.28
2022-10-10T07:56:29.157Z,5.25
2022-10-10T07:58:55.544Z,4.43
2022-10-10T08:01:21.896Z,4.40
2022-10-10T08:03:48.552Z,4.10
2022-10-10T08:06:17.013Z,4.13
2022-10-10T08:08:50.845Z,4.70
2022-10-10T08:11:18.360Z,3.97
2022-10-10T08:13:44.784Z,4.07
2022-10-10T08:16:11.289Z,4.30
2022-10-10T08:18:37.637Z,3.78
2022-10-10T08:21:05.437Z,3.65
2022-10-10T08:23:32.131Z,3.88
2022-10-10T08:25:59.732Z,4.82
2022-10-10T08:28:26.693Z,4.65
2022-10-10T08:30:53.066Z,4.45
2022-10-10T08:33:19.451Z,4.53
2022-10-10T08:35:45.806Z,4.38
2022-10-10T08:38:13.710Z,4.60
2022-10-10T08:40:45.051Z,4.85
2022-10-10T08:43:16.802Z,4.78
2022-10-10T08:45:43.847Z,4.60
2022-10-10T08:48:12.930Z,4.38
2022-10-10T08:50:44.560Z,4.47
2022-10-10T08:53:32.029Z,3.72
2022-10-10T08:55:58.821Z,4.32
2022-10-10T08:58:51.421Z,4.57
2022-10-10T09:01:23.730Z,4.35
2022-10-10T09:03:57.374Z,4.53
2022-10-10T09:06:32.816Z,3.95
2022-10-10T09:09:08.540Z,4.07
2022-10-10T09:11:44.534Z,4.20
2022-10-10T09:14:32.414Z,4.30
2022-10-10T09:17:08.782Z,4.00
2022-10-10T09:19:41.380Z,4.25
2022-10-10T09:22:11.932Z,4.45
2022-10-10T09:24:58.549Z,4.80
2022-10-10T09:27:27.676Z,4.65
2022-10-10T09:29:55.157Z,4.50
2022-10-10T09:32:24.178Z,4.90
2022-10-10T09:34:50.475Z,4.60
2022-10-10T09:37:48.375Z,4.32
2022-10-10T09:40:18.982Z,4.65
2022-10-10T09:42:46.431Z,4.75
2022-10-10T09:45:16.220Z,4.03
2022-10-10T09:47:42.663Z,5.03
2022-10-10T09:50:12.679Z,5.03
2022-10-10T09:52:39.368Z,4.90
2022-10-10T09:55:12.940Z,4.70
2022-10-10T09:57:40.730Z,5.07
2022-10-10T10:00:24.324Z,4.55
2022-10-10T10:03:11.121Z,5.75
2022-10-10T10:05:37.793Z,5.50
2022-10-10T10:08:04.275Z,4.85
2022-10-10T10:10:33.950Z,4.63
2022-10-10T10:13:00.370Z,4.32
2022-10-10T10:15:31.481Z,4.90
2022-10-10T10:18:11.232Z,4.57
2022-10-10T10:20:39.082Z,5.30
2022-10-10T10:23:06.305Z,5.05
2022-10-10T10:25:37.036Z,4.82
2022-10-10T10:28:14.914Z,5.45
2022-10-10T10:30:45.033Z,4.65
2022-10-10T10:33:18.584Z,4.75
2022-10-10T10:35:48.533Z,4.95
2022-10-10T10:38:23.176Z,4.28
2022-10-10T10:40:59.981Z,4.95
2022-10-10T10:43:29.427Z,4.65
2022-10-10T10:45:55.755Z,4.85
2022-10-10T10:48:34.313Z,5.20
2022-10-10T10:51:15.920Z,4.40
2022-10-10T10:53:51.510Z,4.78
2022-10-10T10:56:37.324Z,5.07
2022-10-10T10:59:38.585Z,4.28
2022-10-10T11:02:31.302Z,4.13
2022-10-10T11:05:28.286Z,4.75
2022-10-10T11:07:57.358Z,5.28
2022-10-10T11:10:34.593Z,5.70
2022-10-10T11:13:04.230Z,4.90
2022-10-10T11:16:05.285Z,4.75
2022-10-10T11:18:36.147Z,4.35
2022-10-10T11:21:22.934Z,4.10
2022-10-10T11:23:55.010Z,5.07
2022-10-10T11:26:26.912Z,4.07
2022-10-10T11:29:08.578Z,4.57
2022-10-10T11:31:43.588Z,4.37
2022-10-10T11:34:13.065Z,3.97
2022-10-10T11:36:41.368Z,4.30
2022-10-10T11:39:16.042Z,3.45
2022-10-10T11:41:51.036Z,4.15
2022-10-10T11:44:19.676Z,2.88
2022-10-10T11:47:04.933Z,3.33
2022-10-10T11:49:54.605Z,2.92
2022-10-10T11:52:39.536Z,3.30
2022-10-10T11:55:10.313Z,2.92
2022-10-10T11:57:41.101Z,2.88
2022-10-10T12:00:12.733Z,2.70
2022-10-10T12:02:42.892Z,3.13
2022-10-10T12:05:18.207Z,3.35
2022-10-10T12:07:53.855Z,3.28
2022-10-10T12:10:35.266Z,2.88
2022-10-10T12:13:20.224Z,3.07
2022-10-10T12:15:50.236Z,2.58
2022-10-10T12:18:23.983Z,3.42
2022-10-10T12:21:02.163Z,3.75
2022-10-10T12:23:32.714Z,3.15
2022-10-10T12:25:59.548Z,3.35
2022-10-10T12:28:33.984Z,3.20
2022-10-10T12:31:06.494Z,3.05
2022-10-10T12:33:32.939Z,3.20
2022-10-10T12:36:22.361Z,2.97
2022-10-10T12:39:00.925Z,3.47
2022-10-10T12:41:47.264Z,2.90
2022-10-10T12:44:23.117Z,3.50
2022-10-10T12:47:08.233Z,3.22
2022-10-10T12:49:58.725Z,3.45
2022-10-10T12:52:36.193Z,3.33
2022-10-10T12:55:08.029Z,3.38
2022-10-10T12:57:42.565Z,3.58
2022-10-10T13:00:15.297Z,3.30
2022-10-10T13:02:43.397Z,3.47
2022-10-10T13:05:11.579Z,3.70
2022-10-10T13:07:38.608Z,3.38
2022-10-10T13:10:07.042Z,3.70
2022-10-10T13:12:34.149Z,4.40
2022-10-10T13:15:00.700Z,4.68
2022-10-10T13:17:31.408Z,4.65
2022-10-10T13:19:59.059Z,4.72
2022-10-10T13:22:26.108Z,4.30
2022-10-10T13:24:52.653Z,5.25
2022-10-10T13:27:24.877Z,5.10
2022-10-10T13:29:52.128Z,4.78
2022-10-10T13:32:20.854Z,5.60
2022-10-10T13:34:49.554Z,5.40
2022-10-10T13:37:17.032Z,6.07
2022-10-10T13:39:43.801Z,5.50
2022-10-10T13:42:28.951Z,5.90
2022-10-10T13:44:57.118Z,5.78
2022-10-10T13:48:00.145Z,5.93
2022-10-10T13:50:29.285Z,5.60
2022-10-10T13:53:14.844Z,5.78
2022-10-10T13:55:41.604Z,5.45
2022-10-10T13:58:09.550Z,5.38
2022-10-10T14:00:37.584Z,4.95
2022-10-10T14:03:17.893Z,5.53
2022-10-10T14:05:45.229Z,5.28
2022-10-10T14:08:19.370Z,6.53
2022-10-10T14:11:14.805Z,6.35
2022-10-10T14:13:46.812Z,6.68
2022-10-10T14:16:24.308Z,6.07
2022-10-10T14:18:50.842Z,6.72
2022-10-10T14:21:18.156Z,6.93
2022-10-10T14:23:44.688Z,6.50
2022-10-10T14:26:16.585Z,7.10
2022-10-10T14:28:43.498Z,6.13
2022-10-10T14:31:10.238Z,6.07
2022-10-10T14:33:36.657Z,6.30
2022-10-10T14:36:03.467Z,6.65
2022-10-10T14:38:30.028Z,7.35
2022-10-10T14:40:56.552Z,6.45
2022-10-10T14:43:24.390Z,6.57
2022-10-10T14:45:51.711Z,6.47
2022-10-10T14:48:18.562Z,7.25
2022-10-10T14:50:46.917Z,6.78
2022-10-10T14:53:14.128Z,7.10
2022-10-10T14:55:43.610Z,9.52
2022-10-10T14:58:17.575Z,9.18
2022-10-10T15:00:44.468Z,8.13
2022-10-10T15:03:10.930Z,8.80
2022-10-10T15:05:37.401Z,9.82
2022-10-10T15:08:03.934Z,13.13
2022-10-10T15:10:34.556Z,6.88
2022-10-10T15:13:01.950Z,6.78
2022-10-10T15:15:28.315Z,5.85
2022-10-10T15:17:56.387Z,4.22
2022-10-10T15:20:27.221Z,2.38
2022-10-10T15:22:53.677Z,1.50
2022-10-10T15:25:20.065Z,1.10
2022-10-10T15:27:46.502Z,1.23
2022-10-10T15:30:12.966Z,1.08
2022-10-10T15:32:40.665Z,1.15
2022-10-10T15:35:07.232Z,1.33
2022-10-10T15:37:33.564Z,1.27
2022-10-10T15:39:59.990Z,0.70
2022-10-10T15:42:27.628Z,1.98
2022-10-10T15:44:54.013Z,5.03
2022-10-10T15:47:20.713Z,3.80
2022-10-10T15:49:47.210Z,6.22
2022-10-10T15:52:13.530Z,3.50
2022-10-10T15:54:39.961Z,2.63
2022-10-10T15:57:06.398Z,1.67
2022-10-10T15:59:33.137Z,1.58
2022-10-10T16:01:59.665Z,2.33
2022-10-10T16:04:26.429Z,3.60
2022-10-10T16:07:20.002Z,5.72
2022-10-10T16:09:39.829Z,3.30
2022-10-10T16:12:06.388Z,2.50
2022-10-10T16:14:32.845Z,2.17
2022-10-10T16:17:02.086Z,2.40
2022-10-10T16:19:28.529Z,1.88
2022-10-10T16:21:54.880Z,2.13
2022-10-10T16:24:21.335Z,2.22
2022-10-10T16:26:47.778Z,1.90
2022-10-10T16:29:15.131Z,2.28
2022-10-10T16:31:42.925Z,1.58
2022-10-10T16:34:10.296Z,1.92
2022-10-10T16:36:37.226Z,1.60
2022-10-10T16:39:04.751Z,2.05
2022-10-10T16:41:48.655Z,2.10
2022-10-10T16:44:16.036Z,1.80
2022-10-10T16:46:42.342Z,1.98
2022-10-10T16:49:10.097Z,1.77
2022-10-10T16:51:36.886Z,2.45
2022-10-10T16:54:05.050Z,1.73
2022-10-10T16:56:31.643Z,2.13
2022-10-10T16:58:59.224Z,1.75
2022-10-10T17:01:25.846Z,2.72
2022-10-10T17:03:52.559Z,3.00
2022-10-10T17:06:20.407Z,2.20
2022-10-10T17:08:48.136Z,2.78
2022-10-10T17:11:14.694Z,3.08
2022-10-10T17:13:41.384Z,3.58
2022-10-10T17:16:44.976Z,6.10
2022-10-10T17:18:55.972Z,5.28
2022-10-10T17:21:24.567Z,4.65
2022-10-10T17:23:51.162Z,4.78
2022-10-10T17:26:18.773Z,5.22
2022-10-10T17:28:45.250Z,5.63
2022-10-10T17:31:14.929Z,6.47
2022-10-10T17:33:42.311Z,6.20
2022-10-10T17:36:09.670Z,6.15
2022-10-10T17:38:40.037Z,4.93
2022-10-10T17:41:08.401Z,5.90
2022-10-10T17:43:34.871Z,5.55
2022-10-10T17:46:32.691Z,5.75
2022-10-10T17:48:52.087Z,5.93
2022-10-10T17:51:23.070Z,7.38
2022-10-10T17:53:50.013Z,7.45
2022-10-10T17:56:17.625Z,8.38
2022-10-10T17:58:45.658Z,7.30
2022-10-10T18:01:12.871Z,7.85
2022-10-10T18:03:39.531Z,10.70
2022-10-10T18:06:13.594Z,10.50
2022-10-10T18:08:40.011Z,8.98
2022-10-10T18:11:13.565Z,9.80
2022-10-10T18:13:40.424Z,9.80
2022-10-10T18:16:11.265Z,14.68
2022-10-10T18:18:38.305Z,16.58
2022-10-10T18:21:05.781Z,10.55
2022-10-10T18:23:32.569Z,8.20
2022-10-10T18:26:01.313Z,6.25
2022-10-10T18:28:31.664Z,5.00
2022-10-10T18:30:58.173Z,4.35
2022-10-10T18:33:24.577Z,3.92
2022-10-10T18:35:50.885Z,4.60
2022-10-10T18:38:17.255Z,4.03
2022-10-10T18:40:43.582Z,4.30
2022-10-10T18:43:10.797Z,4.63
2022-10-10T18:45:37.157Z,4.43
2022-10-10T18:48:03.657Z,5.35
2022-10-10T18:50:30.255Z,4.80
2022-10-10T18:52:57.791Z,5.28
2022-10-10T18:55:30.115Z,5.75
2022-10-10T18:57:57.570Z,5.75
2022-10-10T19:00:27.028Z,6.75
2022-10-10T19:02:53.484Z,7.78
2022-10-10T19:05:19.960Z,11.40
2022-10-10T19:07:46.326Z,29.80
2022-10-10T19:10:12.788Z,54.15
2022-10-10T19:12:41.983Z,58.70
2022-10-10T19:15:11.621Z,51.13
2022-10-10T19:17:38.036Z,47.95
2022-10-10T19:20:05.189Z,38.90
2022-10-10T19:22:31.803Z,26.63
2022-10-10T19:24:58.218Z,22.50
2022-10-10T19:27:24.657Z,36.25
2022-10-10T19:29:51.057Z,37.03
2022-10-10T19:32:17.414Z,28.85
2022-10-10T19:34:43.868Z,21.55
2022-10-10T19:37:10.266Z,15.80
2022-10-10T19:39:36.609Z,11.80
2022-10-10T19:42:02.956Z,9.15
2022-10-10T19:44:29.261Z,9.05
2022-10-10T19:46:56.098Z,12.10
2022-10-10T19:49:22.537Z,9.93
2022-10-10T19:51:48.873Z,9.10
2022-10-10T19:54:15.299Z,6.15
2022-10-10T19:56:41.688Z,5.63
2022-10-10T19:59:08.461Z,6.05
2022-10-10T20:01:35.136Z,5.35
2022-10-10T20:04:01.734Z,6.05
2022-10-10T20:06:28.192Z,6.60
2022-10-10T20:08:55.640Z,6.75
2022-10-10T20:11:23.144Z,6.57
2022-10-10T20:13:53.325Z,5.57
2022-10-10T20:16:20.696Z,6.45
2022-10-10T20:18:48.057Z,5.60
2022-10-10T20:21:16.969Z,5.30
2022-10-10T20:23:44.426Z,5.63
2022-10-10T20:26:16.423Z,9.40
2022-10-10T20:28:43.105Z,12.38
2022-10-10T20:31:14.363Z,11.35
2022-10-10T20:33:41.823Z,9.13
2022-10-10T20:36:08.897Z,8.00
2022-10-10T20:38:35.658Z,14.90
2022-10-10T20:41:04.924Z,9.68
2022-10-10T20:43:31.286Z,6.60
2022-10-10T20:46:02.401Z,6.30
2022-10-10T20:48:28.977Z,5.20
2022-10-10T20:50:55.399Z,5.65
2022-10-10T20:53:21.728Z,5.60
2022-10-10T20:55:48.073Z,6.40
2022-10-10T20:58:14.658Z,6.75
2022-10-10T21:00:44.626Z,6.40
2022-10-10T21:03:10.945Z,6.65
2022-10-10T21:05:37.540Z,6.53
2022-10-10T21:08:03.982Z,7.22
2022-10-10T21:10:30.434Z,7.40
2022-10-10T21:12:56.869Z,7.55
2022-10-10T21:15:23.216Z,7.50
2022-10-10T21:17:49.553Z,6.72
2022-10-10T21:20:16.002Z,6.53
2022-10-10T21:22:42.357Z,6.38
2022-10-10T21:25:08.812Z,6.43
2022-10-10T21:27:35.160Z,6.28
2022-10-10T21:30:01.774Z,6.97
2022-10-10T21:32:28.193Z,6.57
2022-10-10T21:34:56.549Z,6.57
2022-10-10T21:37:23.031Z,6.55
2022-10-10T21:39:49.378Z,6.30
2022-10-10T21:42:15.731Z,5.55
2022-10-10T21:44:42.074Z,5.22
2022-10-10T21:47:08.496Z,4.78
2022-10-10T21:49:34.822Z,4.65
2022-10-10T21:52:01.285Z,4.97
2022-10-10T21:54:27.680Z,5.50
2022-10-10T21:56:54.004Z,5.47
2022-10-10T21:59:20.322Z,4.45
2022-10-10T22:01:46.657Z,4.25
2022-10-10T22:04:13.157Z,5.00
2022-10-10T22:06:39.561Z,4.35
2022-10-10T22:09:06.423Z,4.88
2022-10-10T22:11:34.290Z,4.43
2022-10-10T22:14:02.365Z,4.13
2022-10-10T22:16:29.132Z,4.60
2022-10-10T22:18:55.857Z,4.60
2022-10-10T22:21:23.900Z,4.72
2022-10-10T22:23:53.176Z,4.00
2022-10-10T22:26:19.611Z,4.25
2022-10-10T22:28:46.088Z,4.50
2022-10-10T22:31:14.175Z,5.32
2022-10-10T22:33:40.548Z,4.40
2022-10-10T22:36:07.935Z,4.28
2022-10-10T22:38:42.382Z,4.13
2022-10-10T22:41:09.368Z,3.80
2022-10-10T22:43:35.781Z,3.50
2022-10-10T22:46:02.570Z,4.47
2022-10-10T22:48:29.542Z,3.92
2022-10-10T22:51:00.513Z,3.80
2022-10-10T22:53:27.035Z,3.47
2022-10-10T22:55:53.386Z,3.85
2022-10-10T22:58:19.726Z,3.75
2022-10-10T23:00:46.237Z,4.28
2022-10-10T23:03:12.669Z,4.65
2022-10-10T23:05:39.084Z,4.45
2022-10-10T23:08:06.444Z,4.57
2022-10-10T23:10:32.786Z,3.70
2022-10-10T23:12:59.121Z,3.70
2022-10-10T23:15:25.551Z,3.85
2022-10-10T23:17:51.906Z,3.83
2022-10-10T23:20:18.301Z,4.47
2022-10-10T23:22:45.666Z,3.80
2022-10-10T23:25:12.005Z,3.92
2022-10-10T23:27:38.304Z,3.65
2022-10-10T23:30:04.922Z,3.88
2022-10-10T23:32:31.282Z,3.67
2022-10-10T23:34:57.648Z,3.50
2022-10-10T23:37:25.247Z,3.55
2022-10-10T23:39:51.606Z,3.63
2022-10-10T23:42:19.042Z,3.55
2022-10-10T23:44:45.485Z,3.25
2022-10-10T23:47:11.845Z,3.38
2022-10-10T23:49:38.186Z,3.63
2022-10-10T23:52:04.682Z,3.42
2022-10-10T23:54:31.052Z,3.47
2022-10-10T23:56:57.441Z,3.20
2022-10-10T23:59:23.813Z,3.20
